createdAt,value
2018-09-06T00:01:06.202Z,12.10
2018-09-06T00:03:34.183Z,12.10
2018-09-06T00:06:02.227Z,12.00
2018-09-06T00:08:30.327Z,11.90
2018-09-06T00:10:58.394Z,11.90
2018-09-06T00:13:27.018Z,11.90
2018-09-06T00:15:55.014Z,11.90
2018-09-06T00:18:23.235Z,11.80
2018-09-06T00:20:51.229Z,11.90
2018-09-06T00:23:19.284Z,11.90
2018-09-06T00:25:47.329Z,11.80
2018-09-06T00:28:15.201Z,11.80
2018-09-06T00:30:43.204Z,11.80
2018-09-06T00:33:11.135Z,11.80
2018-09-06T00:35:39.136Z,11.80
2018-09-06T00:38:07.174Z,11.70
2018-09-06T00:40:35.234Z,11.70
2018-09-06T00:43:03.309Z,11.80
2018-09-06T00:45:31.266Z,11.80
2018-09-06T00:47:59.309Z,11.70
2018-09-06T00:50:31.800Z,11.70
2018-09-06T00:53:00.289Z,11.70
2018-09-06T00:55:28.248Z,11.70
2018-09-06T00:57:56.172Z,11.80
2018-09-06T01:00:24.514Z,11.80
2018-09-06T01:02:53.261Z,11.80
2018-09-06T01:05:21.435Z,11.70
2018-09-06T01:07:49.483Z,11.70
2018-09-06T01:10:17.345Z,11.60
2018-09-06T01:12:45.326Z,11.60
2018-09-06T01:15:13.250Z,11.60
2018-09-06T01:17:41.265Z,11.60
2018-09-06T01:20:09.384Z,11.60
2018-09-06T01:22:37.836Z,11.60
2018-09-06T01:25:06.282Z,11.60
2018-09-06T01:27:34.244Z,11.60
2018-09-06T01:30:02.124Z,11.60
2018-09-06T01:32:30.055Z,11.60
2018-09-06T01:34:58.271Z,11.50
2018-09-06T01:37:26.452Z,11.50
2018-09-06T01:39:55.136Z,11.40
2018-09-06T01:42:23.193Z,11.40
2018-09-06T01:44:51.236Z,11.40
2018-09-06T01:47:19.283Z,11.40
2018-09-06T01:49:47.621Z,11.40
2018-09-06T01:52:15.590Z,11.40
2018-09-06T01:54:43.603Z,11.30
2018-09-06T01:57:11.931Z,11.30
2018-09-06T01:59:40.594Z,11.20
2018-09-06T02:02:08.987Z,11.20
2018-09-06T02:04:37.735Z,11.20
2018-09-06T02:07:06.362Z,11.10
2018-09-06T02:09:35.672Z,11.10
2018-09-06T02:12:04.120Z,11.00
2018-09-06T02:14:32.224Z,11.00
2018-09-06T02:17:00.479Z,10.80
2018-09-06T02:19:28.686Z,10.80
2018-09-06T02:21:56.936Z,10.80
2018-09-06T02:24:25.084Z,10.80
2018-09-06T02:26:53.064Z,10.70
2018-09-06T02:29:21.501Z,10.70
2018-09-06T02:31:49.648Z,10.70
2018-09-06T02:34:17.734Z,10.70
2018-09-06T02:36:46.157Z,10.60
2018-09-06T02:39:14.062Z,10.60
2018-09-06T02:41:42.113Z,10.60
2018-09-06T02:44:09.893Z,10.60
2018-09-06T02:46:37.732Z,10.50
2018-09-06T02:49:05.825Z,10.50
2018-09-06T02:51:34.901Z,10.50
2018-09-06T02:54:03.047Z,10.40
2018-09-06T02:56:31.158Z,10.40
2018-09-06T02:58:59.328Z,10.40
2018-09-06T03:01:27.473Z,10.30
2018-09-06T03:03:55.422Z,10.30
2018-09-06T03:06:23.749Z,10.30
2018-09-06T03:08:52.262Z,10.30
2018-09-06T03:11:24.532Z,10.30
2018-09-06T03:13:54.757Z,10.30
2018-09-06T03:16:23.377Z,10.30
2018-09-06T03:18:52.026Z,10.30
2018-09-06T03:21:20.434Z,10.30
2018-09-06T03:23:49.414Z,10.20
2018-09-06T03:26:18.487Z,10.20
2018-09-06T03:28:48.034Z,10.20
2018-09-06T03:31:16.018Z,10.10
2018-09-06T03:33:45.324Z,10.10
2018-09-06T03:36:13.621Z,10.10
2018-09-06T03:38:41.780Z,10.10
2018-09-06T03:41:09.861Z,10.10
2018-09-06T03:43:38.062Z,10.10
2018-09-06T03:46:12.805Z,10.10
2018-09-06T03:48:40.620Z,10.10
2018-09-06T03:51:08.324Z,10.10
2018-09-06T03:53:36.428Z,10.10
2018-09-06T03:56:04.650Z,10.00
2018-09-06T03:58:32.881Z,10.00
2018-09-06T04:01:01.051Z,10.00
2018-09-06T04:03:29.557Z,9.90
2018-09-06T04:05:57.649Z,9.90
2018-09-06T04:08:26.444Z,9.90
2018-09-06T04:10:54.719Z,9.90
2018-09-06T04:13:23.540Z,9.90
2018-09-06T04:15:51.437Z,9.90
2018-09-06T04:18:20.859Z,9.80
2018-09-06T04:20:49.332Z,9.80
2018-09-06T04:23:17.742Z,9.80
2018-09-06T04:25:46.088Z,9.80
2018-09-06T04:28:14.333Z,9.80
2018-09-06T04:30:42.354Z,9.80
2018-09-06T04:33:10.380Z,9.70
2018-09-06T04:35:38.589Z,9.70
2018-09-06T04:38:06.914Z,9.70
2018-09-06T04:40:35.526Z,9.70
2018-09-06T04:43:03.484Z,9.70
2018-09-06T04:45:31.804Z,9.70
2018-09-06T04:48:00.059Z,9.70
2018-09-06T04:50:28.302Z,9.80
2018-09-06T04:52:56.982Z,9.70
2018-09-06T04:55:25.078Z,9.70
2018-09-06T04:57:53.422Z,9.80
2018-09-06T05:00:21.481Z,9.70
2018-09-06T05:02:49.490Z,9.80
2018-09-06T05:05:17.362Z,9.80
2018-09-06T05:07:45.520Z,9.80
2018-09-06T05:10:13.681Z,9.90
2018-09-06T05:12:42.034Z,10.00
2018-09-06T05:15:10.131Z,10.00
2018-09-06T05:17:38.488Z,10.00
2018-09-06T05:20:06.832Z,10.10
2018-09-06T05:22:35.261Z,10.10
2018-09-06T05:25:03.490Z,10.10
2018-09-06T05:27:31.584Z,10.10
2018-09-06T05:30:00.123Z,10.20
2018-09-06T05:32:28.296Z,10.20
2018-09-06T05:34:57.086Z,10.30
2018-09-06T05:37:24.913Z,10.30
2018-09-06T05:39:52.924Z,10.40
2018-09-06T05:42:20.942Z,10.50
2018-09-06T05:44:48.905Z,10.50
2018-09-06T05:47:16.884Z,10.60
2018-09-06T05:49:45.037Z,10.70
2018-09-06T05:52:13.022Z,10.90
2018-09-06T05:54:40.956Z,11.00
2018-09-06T05:57:09.176Z,11.10
2018-09-06T05:59:37.136Z,11.30
2018-09-06T06:02:05.105Z,11.40
2018-09-06T06:04:33.197Z,11.50
2018-09-06T06:07:01.749Z,11.60
2018-09-06T06:09:29.832Z,11.70
2018-09-06T06:11:57.910Z,11.80
2018-09-06T06:14:26.235Z,11.90
2018-09-06T06:17:00.946Z,12.00
2018-09-06T06:19:29.006Z,12.20
2018-09-06T06:21:57.238Z,12.30
2018-09-06T06:24:25.603Z,12.40
2018-09-06T06:26:53.789Z,12.60
2018-09-06T06:29:21.489Z,12.70
2018-09-06T06:31:49.713Z,12.70
2018-09-06T06:34:18.655Z,13.00
2018-09-06T06:36:46.608Z,13.10
2018-09-06T06:39:14.985Z,13.50
2018-09-06T06:41:43.017Z,13.80
2018-09-06T06:44:11.640Z,14.20
2018-09-06T06:46:39.977Z,14.40
2018-09-06T06:49:08.159Z,14.80
2018-09-06T06:51:37.105Z,15.10
2018-09-06T06:54:05.388Z,15.40
2018-09-06T06:56:34.224Z,15.90
2018-09-06T06:59:02.252Z,16.30
2018-09-06T07:01:30.981Z,16.70
2018-09-06T07:03:59.267Z,16.80
2018-09-06T07:06:27.329Z,16.90
2018-09-06T07:08:55.543Z,16.90
2018-09-06T07:11:23.776Z,17.10
2018-09-06T07:13:51.988Z,17.20
2018-09-06T07:16:19.923Z,17.30
2018-09-06T07:18:48.379Z,17.50
2018-09-06T07:21:31.272Z,17.80
2018-09-06T07:23:59.439Z,18.00
2018-09-06T07:26:27.558Z,18.10
2018-09-06T07:28:55.474Z,18.10
2018-09-06T07:31:23.508Z,18.30
2018-09-06T07:33:55.373Z,18.50
2018-09-06T07:36:23.471Z,18.60
2018-09-06T07:38:51.577Z,18.80
2018-09-06T07:41:20.064Z,18.90
2018-09-06T07:43:48.153Z,19.10
2018-09-06T07:46:16.261Z,19.20
2018-09-06T07:48:44.293Z,19.40
2018-09-06T07:51:12.422Z,19.50
2018-09-06T07:53:40.520Z,19.50
2018-09-06T07:56:08.765Z,19.60
2018-09-06T07:58:38.973Z,19.70
2018-09-06T08:01:07.183Z,19.90
2018-09-06T08:03:35.891Z,20.00
2018-09-06T08:06:03.832Z,20.10
2018-09-06T08:08:31.945Z,20.20
2018-09-06T08:11:00.589Z,20.20
2018-09-06T08:13:29.266Z,20.40
2018-09-06T08:15:58.779Z,20.50
2018-09-06T08:18:26.651Z,20.70
2018-09-06T08:20:54.763Z,20.70
2018-09-06T08:23:23.457Z,20.90
2018-09-06T08:25:51.487Z,21.00
2018-09-06T08:28:19.780Z,21.20
2018-09-06T08:30:47.932Z,21.40
2018-09-06T08:33:15.898Z,21.60
2018-09-06T08:35:44.093Z,21.80
2018-09-06T08:38:12.167Z,22.00
2018-09-06T08:40:40.124Z,22.10
2018-09-06T08:43:08.374Z,22.20
2018-09-06T08:45:36.340Z,22.30
2018-09-06T08:48:04.412Z,22.50
2018-09-06T08:50:32.181Z,22.60
2018-09-06T08:52:59.950Z,22.80
2018-09-06T08:55:27.933Z,22.90
2018-09-06T08:57:56.449Z,23.00
2018-09-06T09:00:24.484Z,23.10
2018-09-06T09:02:52.564Z,23.20
2018-09-06T09:05:20.737Z,23.40
2018-09-06T09:07:48.608Z,23.40
2018-09-06T09:10:16.811Z,23.50
2018-09-06T09:12:44.958Z,23.50
2018-09-06T09:15:13.347Z,23.60
2018-09-06T09:17:41.185Z,23.80
2018-09-06T09:20:09.269Z,24.00
2018-09-06T09:22:37.294Z,24.20
2018-09-06T09:25:05.678Z,24.40
2018-09-06T09:27:33.920Z,24.60
2018-09-06T09:30:01.965Z,24.60
2018-09-06T09:32:30.293Z,24.60
2018-09-06T09:34:58.594Z,24.60
2018-09-06T09:37:26.823Z,24.60
2018-09-06T09:39:54.788Z,24.50
2018-09-06T09:42:22.754Z,24.40
2018-09-06T09:44:50.893Z,24.40
2018-09-06T09:49:48.702Z,24.30
2018-09-06T09:52:16.885Z,24.20
2018-09-06T09:54:45.284Z,24.10
2018-09-06T09:57:13.797Z,24.00
2018-09-06T09:59:41.591Z,24.00
2018-09-06T10:02:15.014Z,23.90
2018-09-06T10:04:48.468Z,24.00
2018-09-06T10:07:22.027Z,24.00
2018-09-06T10:09:57.480Z,24.10
2018-09-06T10:12:26.190Z,24.30
2018-09-06T10:14:55.010Z,24.40
2018-09-06T10:17:22.881Z,24.60
2018-09-06T10:19:51.525Z,24.70
2018-09-06T10:22:19.774Z,24.90
2018-09-06T10:24:48.236Z,24.90
2018-09-06T10:27:16.246Z,25.00
2018-09-06T10:29:44.490Z,25.10
2018-09-06T10:32:12.838Z,25.30
2018-09-06T10:34:40.751Z,25.50
2018-09-06T10:37:08.543Z,25.70
2018-09-06T10:39:36.694Z,26.00
2018-09-06T10:42:04.499Z,26.20
2018-09-06T10:44:32.509Z,26.20
2018-09-06T10:47:00.896Z,26.10
2018-09-06T10:49:29.208Z,26.10
2018-09-06T10:51:57.434Z,26.10
2018-09-06T10:54:25.440Z,26.20
2018-09-06T10:56:53.408Z,26.30
2018-09-06T10:59:21.764Z,26.50
2018-09-06T11:01:50.247Z,26.70
2018-09-06T11:04:18.907Z,26.90
2018-09-06T11:06:47.029Z,26.90
2018-09-06T11:09:14.857Z,27.00
2018-09-06T11:11:43.150Z,27.00
2018-09-06T11:14:11.350Z,26.90
2018-09-06T11:16:40.158Z,26.80
2018-09-06T11:19:08.128Z,26.70
2018-09-06T11:21:37.074Z,26.40
2018-09-06T11:24:05.022Z,26.20
2018-09-06T11:26:33.662Z,26.10
2018-09-06T11:29:01.899Z,26.00
2018-09-06T11:31:30.279Z,25.90
2018-09-06T11:33:58.600Z,25.80
2018-09-06T11:36:28.057Z,25.80
2018-09-06T11:38:56.394Z,25.80
2018-09-06T11:41:24.832Z,25.80
2018-09-06T11:43:52.905Z,25.90
2018-09-06T11:46:20.835Z,26.10
2018-09-06T11:48:48.893Z,26.30
2018-09-06T11:51:17.444Z,26.40
2018-09-06T11:53:48.016Z,26.30
2018-09-06T11:56:16.241Z,26.40
2018-09-06T11:58:44.323Z,26.50
2018-09-06T12:01:12.506Z,26.50
2018-09-06T12:03:40.971Z,26.40
2018-09-06T12:06:09.368Z,26.40
2018-09-06T12:08:37.416Z,26.20
2018-09-06T12:11:05.776Z,26.10
2018-09-06T12:13:35.201Z,25.90
2018-09-06T12:16:03.204Z,25.90
2018-09-06T12:18:31.524Z,25.90
2018-09-06T12:21:00.201Z,25.80
2018-09-06T12:23:28.352Z,25.80
2018-09-06T12:25:56.468Z,25.70
2018-09-06T12:28:24.461Z,25.70
2018-09-06T12:30:52.820Z,25.80
2018-09-06T12:33:22.278Z,25.70
2018-09-06T12:35:50.406Z,25.60
2018-09-06T12:38:18.671Z,25.50
2018-09-06T12:40:47.087Z,25.50
2018-09-06T12:43:15.499Z,25.40
2018-09-06T12:45:44.001Z,25.40
2018-09-06T12:48:12.455Z,25.20
2018-09-06T12:50:43.499Z,25.10
2018-09-06T12:53:11.817Z,25.00
2018-09-06T12:55:40.028Z,25.10
2018-09-06T12:58:08.299Z,25.00
2018-09-06T13:00:36.422Z,25.10
2018-09-06T13:03:05.564Z,25.10
2018-09-06T13:05:34.017Z,25.20
2018-09-06T13:08:02.266Z,25.30
2018-09-06T13:10:32.206Z,25.30
2018-09-06T13:13:00.220Z,25.40
2018-09-06T13:15:29.577Z,25.40
2018-09-06T13:17:57.680Z,25.30
2018-09-06T13:20:25.783Z,25.20
2018-09-06T13:22:54.577Z,25.20
2018-09-06T13:25:23.246Z,25.00
2018-09-06T13:27:51.607Z,24.90
2018-09-06T13:30:19.828Z,24.90
2018-09-06T13:32:48.833Z,24.90
2018-09-06T13:35:16.955Z,24.90
2018-09-06T13:37:44.888Z,25.00
2018-09-06T13:40:13.239Z,25.10
2018-09-06T13:42:41.739Z,25.10
2018-09-06T13:45:09.912Z,25.10
2018-09-06T13:47:38.185Z,25.10
2018-09-06T13:50:06.404Z,25.20
2018-09-06T13:52:35.256Z,25.30
2018-09-06T13:58:02.548Z,25.40
2018-09-06T14:00:30.815Z,25.40
2018-09-06T14:03:00.504Z,25.40
2018-09-06T14:05:29.512Z,25.40
2018-09-06T14:07:57.802Z,25.40
2018-09-06T14:10:26.371Z,25.30
2018-09-06T14:12:55.394Z,25.20
2018-09-06T14:15:24.124Z,25.20
2018-09-06T14:17:52.604Z,25.20
2018-09-06T14:20:20.724Z,25.10
2018-09-06T14:22:49.531Z,25.10
2018-09-06T14:25:18.722Z,25.10
2018-09-06T14:27:47.123Z,25.10
2018-09-06T14:30:16.094Z,24.90
2018-09-06T14:32:45.317Z,24.90
2018-09-06T14:35:14.125Z,24.80
2018-09-06T14:37:41.955Z,24.70
2018-09-06T14:40:10.039Z,24.70
2018-09-06T14:42:38.067Z,24.70
2018-09-06T14:45:06.685Z,24.70
2018-09-06T14:47:34.751Z,24.80
2018-09-06T14:50:03.177Z,24.80
2018-09-06T14:52:31.395Z,24.80
2018-09-06T14:54:59.349Z,24.80
2018-09-06T14:57:27.768Z,24.80
2018-09-06T14:59:55.907Z,24.80
2018-09-06T15:02:24.037Z,24.90
2018-09-06T15:04:51.934Z,24.90
2018-09-06T15:07:20.569Z,24.90
2018-09-06T15:09:49.038Z,24.70
2018-09-06T15:12:17.416Z,24.70
2018-09-06T15:14:45.963Z,24.60
2018-09-06T15:17:13.980Z,24.60
2018-09-06T15:19:42.007Z,24.50
2018-09-06T15:22:10.133Z,24.30
2018-09-06T15:24:39.182Z,24.20
2018-09-06T15:27:07.266Z,24.10
2018-09-06T15:29:35.290Z,24.10
2018-09-06T15:32:03.860Z,24.00
2018-09-06T15:34:32.235Z,23.90
2018-09-06T15:37:00.795Z,23.70
2018-09-06T15:39:29.767Z,23.50
2018-09-06T15:41:58.030Z,23.40
2018-09-06T15:44:26.215Z,23.30
2018-09-06T15:46:54.656Z,23.10
2018-09-06T15:49:23.045Z,23.00
2018-09-06T15:51:51.092Z,22.90
2018-09-06T15:54:19.104Z,22.80
2018-09-06T15:56:47.038Z,22.70
2018-09-06T15:59:15.592Z,22.60
2018-09-06T16:01:43.648Z,22.50
2018-09-06T16:09:00.112Z,22.40
2018-09-06T16:11:28.551Z,22.20
2018-09-06T16:13:58.053Z,22.20
2018-09-06T16:16:26.149Z,22.10
2018-09-06T16:18:53.955Z,22.00
2018-09-06T16:21:21.887Z,22.00
2018-09-06T16:23:50.270Z,21.90
2018-09-06T16:26:18.343Z,21.90
2018-09-06T16:28:46.763Z,21.80
2018-09-06T16:31:14.628Z,21.80
2018-09-06T16:33:42.852Z,21.70
2018-09-06T16:36:11.047Z,21.60
2018-09-06T16:38:39.004Z,21.50
2018-09-06T16:41:07.042Z,21.50
2018-09-06T16:43:34.781Z,21.50
2018-09-06T16:46:02.764Z,21.50
2018-09-06T16:48:30.826Z,21.50
2018-09-06T16:50:59.008Z,21.50
2018-09-06T16:53:27.196Z,21.60
2018-09-06T16:55:55.231Z,21.70
2018-09-06T16:58:23.260Z,21.70
2018-09-06T17:00:51.455Z,21.70
2018-09-06T17:03:19.538Z,21.60
2018-09-06T17:05:47.852Z,21.40
2018-09-06T17:08:15.769Z,21.30
2018-09-06T17:10:44.184Z,21.20
2018-09-06T17:13:12.380Z,21.10
2018-09-06T17:15:40.878Z,21.00
2018-09-06T17:18:08.810Z,20.90
2018-09-06T17:20:36.741Z,20.80
2018-09-06T17:23:04.676Z,20.60
2018-09-06T17:25:33.168Z,20.50
2018-09-06T17:28:02.069Z,20.30
2018-09-06T17:30:31.530Z,20.20
2018-09-06T17:33:00.552Z,20.10
2018-09-06T17:35:29.354Z,20.00
2018-09-06T17:37:57.832Z,19.90
2018-09-06T17:40:26.310Z,19.80
2018-09-06T17:42:54.654Z,19.70
2018-09-06T17:45:24.088Z,19.60
2018-09-06T17:47:53.291Z,19.50
2018-09-06T17:50:22.116Z,19.50
2018-09-06T17:52:51.176Z,19.30
2018-09-06T17:55:19.337Z,19.30
2018-09-06T17:57:47.263Z,19.20
2018-09-06T18:00:15.708Z,19.20
2018-09-06T18:02:44.100Z,19.10
2018-09-06T18:05:11.989Z,19.10
2018-09-06T18:07:43.036Z,19.00
2018-09-06T18:10:11.300Z,19.00
2018-09-06T18:12:39.397Z,18.90
2018-09-06T18:15:07.617Z,18.90
2018-09-06T18:17:36.244Z,18.90
2018-09-06T18:20:04.627Z,18.80
2018-09-06T18:22:34.266Z,18.80
2018-09-06T18:25:02.385Z,18.80
2018-09-06T18:27:30.916Z,18.70
2018-09-06T18:29:59.441Z,18.70
2018-09-06T18:32:28.394Z,18.70
2018-09-06T18:34:58.187Z,18.70
2018-09-06T18:37:26.519Z,18.70
2018-09-06T18:39:54.292Z,18.60
2018-09-06T18:42:22.451Z,18.60
2018-09-06T18:44:50.591Z,18.60
2018-09-06T18:47:19.643Z,18.60
2018-09-06T18:49:47.724Z,18.50
2018-09-06T18:52:15.686Z,18.40
2018-09-06T18:54:44.254Z,18.40
2018-09-06T18:57:13.039Z,18.30
2018-09-06T18:59:42.085Z,18.20
2018-09-06T19:02:10.564Z,18.10
2018-09-06T19:04:39.208Z,18.00
2018-09-06T19:07:07.210Z,17.90
2018-09-06T19:09:35.195Z,17.80
2018-09-06T19:12:03.789Z,17.70
2018-09-06T19:14:32.224Z,17.70
2018-09-06T19:17:00.491Z,17.70
2018-09-06T19:19:28.919Z,17.70
2018-09-06T19:21:57.555Z,17.60
2018-09-06T19:24:25.803Z,17.50
2018-09-06T19:26:54.269Z,17.50
2018-09-06T19:29:22.689Z,17.40
2018-09-06T19:31:51.111Z,17.40
2018-09-06T19:34:19.397Z,17.40
2018-09-06T19:36:48.670Z,17.30
2018-09-06T19:39:17.117Z,17.20
2018-09-06T19:41:45.546Z,17.20
2018-09-06T19:44:14.179Z,17.10
2018-09-06T19:46:42.730Z,17.00
2018-09-06T19:49:11.742Z,17.00
2018-09-06T19:51:40.522Z,16.90
2018-09-06T19:54:08.804Z,16.80
2018-09-06T19:56:37.361Z,16.70
2018-09-06T19:59:05.379Z,16.70
2018-09-06T20:01:33.783Z,16.60
2018-09-06T20:04:01.904Z,16.60
2018-09-06T20:06:29.807Z,16.60
2018-09-06T20:08:58.250Z,16.60
2018-09-06T20:11:26.590Z,16.60
2018-09-06T20:13:55.509Z,16.60
2018-09-06T20:16:23.344Z,16.60
2018-09-06T20:18:51.471Z,16.60
2018-09-06T20:21:20.513Z,16.60
2018-09-06T20:23:48.929Z,16.60
2018-09-06T20:26:16.955Z,16.60
2018-09-06T20:28:44.822Z,16.60
2018-09-06T20:31:13.012Z,16.60
2018-09-06T20:33:41.040Z,16.50
2018-09-06T20:36:08.939Z,16.50
2018-09-06T20:38:37.245Z,16.50
2018-09-06T20:41:05.312Z,16.50
2018-09-06T20:43:33.223Z,16.50
2018-09-06T20:46:01.847Z,16.60
2018-09-06T20:48:30.015Z,16.50
2018-09-06T20:50:58.746Z,16.50
2018-09-06T20:53:26.680Z,16.40
2018-09-06T20:55:54.507Z,16.40
2018-09-06T20:58:22.796Z,16.40
2018-09-06T21:00:50.719Z,16.40
2018-09-06T21:03:18.656Z,16.40
2018-09-06T21:05:46.784Z,16.30
2018-09-06T21:08:14.903Z,16.20
2018-09-06T21:10:42.804Z,16.20
2018-09-06T21:13:11.544Z,16.20
2018-09-06T21:15:39.507Z,16.20
2018-09-06T21:18:07.396Z,16.30
2018-09-06T21:20:35.296Z,16.20
2018-09-06T21:23:10.166Z,16.20
2018-09-06T21:25:38.412Z,16.20
2018-09-06T21:28:06.572Z,16.20
2018-09-06T21:30:34.721Z,16.20
2018-09-06T21:33:02.792Z,16.20
2018-09-06T21:35:30.638Z,16.20
2018-09-06T21:37:58.942Z,16.20
2018-09-06T21:40:27.393Z,16.20
2018-09-06T21:42:55.246Z,16.20
2018-09-06T21:45:23.139Z,16.10
2018-09-06T21:47:51.344Z,16.10
2018-09-06T21:50:19.531Z,16.20
2018-09-06T21:52:47.457Z,16.10
2018-09-06T21:55:15.399Z,16.10
2018-09-06T21:57:43.320Z,16.10
2018-09-06T22:00:11.400Z,16.10
2018-09-06T22:02:45.199Z,16.10
2018-09-06T22:05:13.110Z,16.00
2018-09-06T22:07:41.223Z,16.00
2018-09-06T22:10:09.304Z,16.10
2018-09-06T22:12:36.968Z,16.10
2018-09-06T22:15:04.936Z,16.00
2018-09-06T22:17:32.883Z,16.00
2018-09-06T22:20:01.021Z,16.00
2018-09-06T22:22:29.248Z,16.00
2018-09-06T22:24:57.349Z,16.00
2018-09-06T22:27:25.124Z,16.00
2018-09-06T22:29:53.083Z,15.90
2018-09-06T22:32:20.997Z,15.90
2018-09-06T22:34:48.842Z,15.90
2018-09-06T22:37:16.732Z,16.00
2018-09-06T22:39:44.592Z,16.00
2018-09-06T22:42:12.468Z,16.00
2018-09-06T22:44:40.537Z,16.00
2018-09-06T22:47:08.503Z,15.90
2018-09-06T22:49:36.409Z,15.90
2018-09-06T22:52:04.734Z,15.90
2018-09-06T22:54:32.757Z,15.90
2018-09-06T22:57:00.894Z,15.90
2018-09-06T22:59:28.716Z,16.00
2018-09-06T23:01:57.801Z,16.10
2018-09-06T23:04:26.194Z,16.10
2018-09-06T23:06:54.057Z,16.20
2018-09-06T23:09:22.198Z,16.20
2018-09-06T23:11:50.200Z,16.20
2018-09-06T23:14:18.567Z,16.20
2018-09-06T23:16:46.368Z,16.20
2018-09-06T23:19:14.176Z,16.20
2018-09-06T23:21:42.029Z,16.20
2018-09-06T23:24:10.161Z,16.20
2018-09-06T23:26:38.326Z,16.20
2018-09-06T23:29:06.178Z,16.20
2018-09-06T23:31:36.917Z,16.20
2018-09-06T23:34:04.758Z,16.20
2018-09-06T23:36:32.960Z,16.20
2018-09-06T23:39:01.172Z,16.20
2018-09-06T23:41:29.254Z,16.10
2018-09-06T23:43:57.486Z,16.10
2018-09-06T23:46:25.477Z,16.10
2018-09-06T23:48:53.462Z,16.00
2018-09-06T23:51:21.627Z,16.00
2018-09-06T23:53:49.767Z,16.00
2018-09-06T23:56:17.518Z,16.00
2018-09-06T23:58:45.734Z,16.00
